createdAt,value
2023-04-15T00:01:48.565Z,95557.56
2023-04-15T00:04:15.217Z,95561.34
2023-04-15T00:06:41.865Z,95568.56
2023-04-15T00:09:08.445Z,95566.31
2023-04-15T00:11:34.994Z,95565.16
2023-04-15T00:14:01.545Z,95572.00
2023-04-15T00:16:28.142Z,95561.72
2023-04-15T00:18:54.711Z,95572.72
2023-04-15T00:21:21.288Z,95572.38
2023-04-15T00:23:47.831Z,95568.16
2023-04-15T00:26:14.420Z,95565.09
2023-04-15T00:28:40.978Z,95563.97
2023-04-15T00:31:07.546Z,95562.06
2023-04-15T00:33:34.208Z,95564.38
2023-04-15T00:36:00.774Z,95561.28
2023-04-15T00:38:27.350Z,95566.97
2023-04-15T00:40:53.897Z,95572.72
2023-04-15T00:43:20.461Z,95578.78
2023-04-15T00:45:47.034Z,95582.22
2023-04-15T00:48:13.651Z,95565.81
2023-04-15T00:50:40.202Z,95563.53
2023-04-15T00:53:06.817Z,95562.78
2023-04-15T00:55:33.358Z,95565.06
2023-04-15T00:57:59.924Z,95561.63
2023-04-15T01:00:26.490Z,95562.78
2023-04-15T01:02:53.221Z,95557.16
2023-04-15T01:05:19.844Z,95563.19
2023-04-15T01:07:46.412Z,95549.16
2023-04-15T01:10:12.951Z,95549.84
2023-04-15T01:12:39.488Z,95556.69
2023-04-15T01:15:06.028Z,95556.31
2023-04-15T01:17:32.594Z,95558.59
2023-04-15T01:19:59.190Z,95566.19
2023-04-15T01:22:25.753Z,95563.16
2023-04-15T01:24:52.317Z,95563.53
2023-04-15T01:27:18.872Z,95554.38
2023-04-15T01:29:45.427Z,95556.69
2023-04-15T01:32:11.974Z,95555.53
2023-04-15T01:34:38.557Z,95558.91
2023-04-15T01:37:05.126Z,95561.59
2023-04-15T01:39:31.661Z,95561.22
2023-04-15T01:41:58.229Z,95558.16
2023-04-15T01:44:24.789Z,95565.00
2023-04-15T01:46:51.515Z,95561.59
2023-04-15T01:49:18.110Z,95563.53
2023-04-15T01:54:11.153Z,95560.81
2023-04-15T01:56:37.698Z,95566.53
2023-04-15T01:59:04.250Z,95559.69
2023-04-15T02:01:30.883Z,95550.56
2023-04-15T02:03:57.528Z,95560.84
2023-04-15T02:06:24.108Z,95552.09
2023-04-15T02:08:50.647Z,95547.16
2023-04-15T02:11:17.205Z,95545.97
2023-04-15T02:13:43.765Z,95553.59
2023-04-15T02:16:10.325Z,95547.50
2023-04-15T02:18:36.893Z,95550.53
2023-04-15T02:21:03.489Z,95550.53
2023-04-15T02:23:30.063Z,95550.50
2023-04-15T02:25:56.618Z,95551.28
2023-04-15T02:28:23.200Z,95543.69
2023-04-15T02:30:49.749Z,95541.44
2023-04-15T02:33:16.285Z,95541.03
2023-04-15T02:35:42.870Z,95544.47
2023-04-15T02:38:09.419Z,95542.88
2023-04-15T02:40:35.996Z,95547.50
2023-04-15T02:43:02.558Z,95536.84
2023-04-15T02:45:29.121Z,95534.53
2023-04-15T02:47:55.701Z,95544.47
2023-04-15T02:50:22.299Z,95539.09
2023-04-15T02:52:48.854Z,95526.97
2023-04-15T02:55:15.427Z,95528.13
2023-04-15T02:57:42.010Z,95536.47
2023-04-15T03:00:08.577Z,95533.81
2023-04-15T03:02:35.328Z,95537.59
2023-04-15T03:05:01.957Z,95535.66
2023-04-15T03:07:28.508Z,95542.53
2023-04-15T03:09:55.048Z,95543.69
2023-04-15T03:12:21.586Z,95540.22
2023-04-15T03:14:48.142Z,95535.31
2023-04-15T03:17:14.708Z,95534.13
2023-04-15T03:19:41.249Z,95536.41
2023-04-15T03:22:07.816Z,95533.78
2023-04-15T03:24:34.354Z,95531.50
2023-04-15T03:27:00.897Z,95531.88
2023-04-15T03:29:27.480Z,95526.19
2023-04-15T03:31:54.019Z,95533.41
2023-04-15T03:34:20.597Z,95530.34
2023-04-15T03:36:47.179Z,95524.63
2023-04-15T03:39:13.770Z,95530.69
2023-04-15T03:41:40.328Z,95534.53
2023-04-15T03:44:06.879Z,95523.88
2023-04-15T03:46:33.484Z,95529.97
2023-04-15T03:49:00.376Z,95528.84
2023-04-15T03:51:27.198Z,95525.78
2023-04-15T03:53:53.741Z,95522.38
2023-04-15T03:56:20.300Z,95530.38
2023-04-15T03:58:46.867Z,95529.19
2023-04-15T04:01:13.471Z,95531.09
2023-04-15T04:03:40.236Z,95532.22
2023-04-15T04:06:06.928Z,95532.22
2023-04-15T04:08:33.481Z,95532.25
2023-04-15T04:11:00.042Z,95521.22
2023-04-15T04:13:26.610Z,95523.13
2023-04-15T04:15:53.197Z,95521.22
2023-04-15T04:18:19.808Z,95524.28
2023-04-15T04:20:46.352Z,95525.81
2023-04-15T04:23:12.894Z,95520.84
2023-04-15T04:25:39.430Z,95533.00
2023-04-15T04:28:05.965Z,95526.91
2023-04-15T04:30:32.530Z,95521.59
2023-04-15T04:32:59.217Z,95517.78
2023-04-15T04:35:25.848Z,95528.13
2023-04-15T04:37:52.442Z,95529.22
2023-04-15T04:40:19.030Z,95529.56
2023-04-15T04:42:45.586Z,95525.00
2023-04-15T04:45:12.162Z,95521.97
2023-04-15T04:47:38.732Z,95528.03
2023-04-15T04:50:05.313Z,95521.19
2023-04-15T04:52:31.862Z,95520.81
2023-04-15T04:54:58.418Z,95529.91
2023-04-15T04:57:24.979Z,95525.41
2023-04-15T04:59:51.527Z,95526.13
2023-04-15T05:02:18.115Z,95530.75
2023-04-15T05:04:44.734Z,95521.63
2023-04-15T05:07:11.288Z,95522.75
2023-04-15T05:09:37.826Z,95529.19
2023-04-15T05:12:07.140Z,95528.81
2023-04-15T05:14:33.684Z,95526.88
2023-04-15T05:17:00.236Z,95528.75
2023-04-15T05:19:26.791Z,95528.44
2023-04-15T05:21:53.339Z,95523.47
2023-04-15T05:24:19.884Z,95533.00
2023-04-15T05:26:46.423Z,95525.00
2023-04-15T05:29:13.012Z,95520.81
2023-04-15T05:31:39.602Z,95522.34
2023-04-15T05:34:06.192Z,95521.97
2023-04-15T05:36:32.745Z,95524.66
2023-04-15T05:38:59.657Z,95529.97
2023-04-15T05:41:26.367Z,95516.25
2023-04-15T05:43:52.923Z,95520.44
2023-04-15T05:46:19.536Z,95519.69
2023-04-15T05:48:46.133Z,95516.25
2023-04-15T05:51:12.697Z,95515.53
2023-04-15T05:53:39.261Z,95513.59
2023-04-15T05:56:05.839Z,95508.28
2023-04-15T06:00:58.933Z,95510.97
2023-04-15T06:03:25.602Z,95517.03
2023-04-15T06:05:52.239Z,95518.16
2023-04-15T06:08:18.793Z,95521.56
2023-04-15T06:10:45.341Z,95517.06
2023-04-15T06:13:11.899Z,95519.31
2023-04-15T06:15:38.491Z,95513.63
2023-04-15T06:18:05.058Z,95522.41
2023-04-15T06:20:31.609Z,95524.28
2023-04-15T06:22:58.156Z,95519.72
2023-04-15T06:25:24.716Z,95520.84
2023-04-15T06:27:51.254Z,95515.91
2023-04-15T06:30:17.797Z,95517.06
2023-04-15T06:32:44.441Z,95514.38
2023-04-15T06:35:11.088Z,95517.44
2023-04-15T06:37:37.653Z,95520.09
2023-04-15T06:40:04.191Z,95510.19
2023-04-15T06:42:30.746Z,95514.00
2023-04-15T06:44:57.303Z,95518.91
2023-04-15T06:47:23.862Z,95526.19
2023-04-15T06:49:50.432Z,95523.16
2023-04-15T06:52:16.970Z,95520.13
2023-04-15T06:54:43.524Z,95522.03
2023-04-15T06:57:10.055Z,95522.38
2023-04-15T06:59:36.598Z,95523.56
2023-04-15T07:02:03.150Z,95523.56
2023-04-15T07:04:29.776Z,95525.44
2023-04-15T07:06:56.385Z,95519.72
2023-04-15T07:09:22.924Z,95519.72
2023-04-15T07:11:49.482Z,95516.31
2023-04-15T07:14:16.038Z,95516.75
2023-04-15T07:16:42.648Z,95511.78
2023-04-15T07:19:09.257Z,95512.50
2023-04-15T07:21:35.823Z,95517.06
2023-04-15T07:24:02.367Z,95523.56
2023-04-15T07:26:28.915Z,95523.22
2023-04-15T07:28:55.451Z,95517.47
2023-04-15T07:31:22.031Z,95527.72
2023-04-15T07:33:48.663Z,95529.31
2023-04-15T07:36:15.203Z,95528.19
2023-04-15T07:38:41.756Z,95520.16
2023-04-15T07:41:08.326Z,95519.38
2023-04-15T07:43:34.868Z,95524.34
2023-04-15T07:46:01.478Z,95517.84
2023-04-15T07:48:28.049Z,95524.66
2023-04-15T07:50:54.600Z,95523.97
2023-04-15T07:53:21.162Z,95528.50
2023-04-15T07:55:47.719Z,95534.63
2023-04-15T07:58:14.266Z,95538.75
2023-04-15T08:00:40.794Z,95539.09
2023-04-15T08:03:07.474Z,95534.94
2023-04-15T08:05:34.185Z,95544.84
2023-04-15T08:08:00.773Z,95540.72
2023-04-15T08:10:27.308Z,95543.03
2023-04-15T08:12:53.876Z,95546.13
2023-04-15T08:15:20.444Z,95541.72
2023-04-15T08:17:47.054Z,95546.31
2023-04-15T08:20:13.649Z,95551.66
2023-04-15T08:22:40.219Z,95552.09
2023-04-15T08:25:06.786Z,95553.59
2023-04-15T08:27:33.331Z,95557.41
2023-04-15T08:30:01.134Z,95559.66
2023-04-15T08:32:28.733Z,95560.81
2023-04-15T08:34:55.311Z,95562.34
2023-04-15T08:37:21.864Z,95571.56
2023-04-15T08:39:48.423Z,95576.13
2023-04-15T08:42:14.989Z,95575.31
2023-04-15T08:44:41.557Z,95578.72
2023-04-15T08:47:08.155Z,95577.66
2023-04-15T08:49:34.794Z,95591.75
2023-04-15T08:52:01.349Z,95584.84
2023-04-15T08:54:27.908Z,95589.00
2023-04-15T08:56:54.567Z,95590.56
2023-04-15T08:59:21.202Z,95592.88
2023-04-15T09:01:47.800Z,95596.25
2023-04-15T09:04:14.546Z,95590.63
2023-04-15T09:06:41.157Z,95599.66
2023-04-15T09:09:07.691Z,95605.81
2023-04-15T09:11:34.268Z,95606.66
2023-04-15T09:14:00.816Z,95611.53
2023-04-15T09:16:27.434Z,95608.91
2023-04-15T09:18:54.007Z,95606.56
2023-04-15T09:21:20.540Z,95618.34
2023-04-15T09:23:47.087Z,95620.19
2023-04-15T09:26:13.640Z,95624.72
2023-04-15T09:28:40.195Z,95629.59
2023-04-15T09:31:06.757Z,95629.59
2023-04-15T09:33:33.327Z,95636.03
2023-04-15T09:35:59.884Z,95633.41
2023-04-15T09:38:26.472Z,95628.41
2023-04-15T09:40:53.020Z,95636.78
2023-04-15T09:43:19.584Z,95643.25
2023-04-15T09:45:46.155Z,95641.00
2023-04-15T09:48:12.720Z,95641.34
2023-04-15T09:50:39.274Z,95641.34
2023-04-15T09:53:05.828Z,95649.00
2023-04-15T09:55:32.404Z,95644.00
2023-04-15T09:57:58.938Z,95654.06
2023-04-15T10:00:25.489Z,95657.53
2023-04-15T10:02:52.091Z,95659.47
2023-04-15T10:05:18.721Z,95656.91
2023-04-15T10:07:45.291Z,95662.56
2023-04-15T10:10:11.853Z,95671.34
2023-04-15T10:12:38.409Z,95667.59
2023-04-15T10:15:04.933Z,95672.91
2023-04-15T10:17:31.875Z,95671.41
2023-04-15T10:19:58.489Z,95677.97
2023-04-15T10:22:25.024Z,95686.72
2023-04-15T10:24:51.564Z,95689.41
2023-04-15T10:27:18.147Z,95687.13
2023-04-15T10:29:44.713Z,95698.53
2023-04-15T10:32:11.262Z,95696.25
2023-04-15T10:34:37.791Z,95693.19
2023-04-15T10:37:04.358Z,95698.91
2023-04-15T10:39:30.936Z,95711.47
2023-04-15T10:41:57.490Z,95702.66
2023-04-15T10:44:24.058Z,95701.81
2023-04-15T10:46:50.648Z,95708.16
2023-04-15T10:49:17.339Z,95711.56
2023-04-15T10:51:43.903Z,95715.72
2023-04-15T10:54:10.467Z,95719.56
2023-04-15T10:56:37.015Z,95717.63
2023-04-15T10:59:03.562Z,95719.56
2023-04-15T11:01:30.104Z,95724.53
2023-04-15T11:03:56.764Z,95730.28
2023-04-15T11:06:23.473Z,95731.78
2023-04-15T11:08:50.014Z,95728.34
2023-04-15T11:11:16.557Z,95731.78
2023-04-15T11:13:43.106Z,95742.41
2023-04-15T11:16:09.672Z,95738.59
2023-04-15T11:18:36.257Z,95748.13
2023-04-15T11:21:02.808Z,95746.53
2023-04-15T11:23:29.346Z,95739.78
2023-04-15T11:25:55.876Z,95743.19
2023-04-15T11:28:22.430Z,95743.22
2023-04-15T11:30:48.969Z,95747.34
2023-04-15T11:33:15.538Z,95750.03
2023-04-15T11:35:42.085Z,95750.50
2023-04-15T11:38:08.691Z,95755.84
2023-04-15T11:40:35.280Z,95759.56
2023-04-15T11:43:01.842Z,95760.38
2023-04-15T11:45:28.397Z,95764.97
2023-04-15T11:47:54.982Z,95763.44
2023-04-15T11:50:21.681Z,95770.25
2023-04-15T11:52:48.230Z,95773.31
2023-04-15T11:55:14.772Z,95773.31
2023-04-15T11:57:41.309Z,95776.34
2023-04-15T12:00:07.876Z,95778.66
2023-04-15T12:02:34.497Z,95787.84
2023-04-15T12:05:01.173Z,95787.44
2023-04-15T12:07:27.728Z,95790.84
2023-04-15T12:09:54.366Z,95797.28
2023-04-15T12:12:20.912Z,95800.00
2023-04-15T12:14:47.441Z,95798.50
2023-04-15T12:17:14.032Z,95804.97
2023-04-15T12:19:40.630Z,95806.91
2023-04-15T12:22:07.167Z,95822.16
2023-04-15T12:24:33.703Z,95816.00
2023-04-15T12:27:00.262Z,95816.38
2023-04-15T12:29:26.840Z,95825.88
2023-04-15T12:31:53.369Z,95817.88
2023-04-15T12:34:19.939Z,95830.44
2023-04-15T12:36:46.473Z,95840.81
2023-04-15T12:39:13.014Z,95840.69
2023-04-15T12:41:39.564Z,95842.22
2023-04-15T12:44:06.289Z,95847.91
2023-04-15T12:46:33.060Z,95863.19
2023-04-15T12:48:59.616Z,95862.03
2023-04-15T12:51:26.154Z,95866.22
2023-04-15T12:53:52.690Z,95872.31
2023-04-15T12:56:19.237Z,95880.66
2023-04-15T12:58:45.791Z,95880.25
2023-04-15T13:01:12.319Z,95883.34
2023-04-15T13:03:39.009Z,95882.94
2023-04-15T13:06:05.680Z,95886.78
2023-04-15T13:08:32.212Z,95884.09
2023-04-15T13:10:58.767Z,95889.78
2023-04-15T13:13:25.333Z,95892.84
2023-04-15T13:15:51.913Z,95897.06
2023-04-15T13:18:18.479Z,95893.97
2023-04-15T13:20:45.031Z,95901.28
2023-04-15T13:23:11.592Z,95907.66
2023-04-15T13:25:38.169Z,95911.50
2023-04-15T13:28:04.719Z,95912.59
2023-04-15T13:30:31.294Z,95915.22
2023-04-15T13:32:57.915Z,95927.34
2023-04-15T13:35:24.500Z,95930.44
2023-04-15T13:37:51.050Z,95926.34
2023-04-15T13:40:17.609Z,95931.66
2023-04-15T13:42:44.136Z,95935.47
2023-04-15T13:45:10.676Z,95936.56
2023-04-15T13:47:37.232Z,95940.75
2023-04-15T13:50:03.870Z,95946.13
2023-04-15T13:52:30.434Z,95952.19
2023-04-15T13:55:19.502Z,95953.00
2023-04-15T13:57:43.531Z,95953.41
2023-04-15T14:00:10.073Z,95950.72
2023-04-15T14:02:36.717Z,95961.00
2023-04-15T14:05:03.459Z,95960.19
2023-04-15T14:07:30.007Z,95956.84
2023-04-15T14:09:56.566Z,95965.13
2023-04-15T14:12:23.096Z,95963.94
2023-04-15T14:14:49.642Z,95973.47
2023-04-15T14:17:16.189Z,95978.09
2023-04-15T14:19:42.713Z,95974.28
2023-04-15T14:22:09.257Z,95981.84
2023-04-15T14:24:35.801Z,95985.66
2023-04-15T14:27:02.346Z,95981.53
2023-04-15T14:29:28.899Z,95990.66
2023-04-15T14:32:11.439Z,95996.38
2023-04-15T14:34:39.025Z,96007.75
2023-04-15T14:37:05.554Z,96011.56
2023-04-15T14:39:32.086Z,96006.56
2023-04-15T14:41:58.649Z,96013.69
2023-04-15T14:44:25.177Z,96022.50
2023-04-15T14:46:51.721Z,96023.66
2023-04-15T14:49:18.283Z,96024.44
2023-04-15T14:51:44.823Z,96026.75
2023-04-15T14:54:11.383Z,96036.63
2023-04-15T14:56:37.946Z,96040.88
2023-04-15T14:59:04.754Z,96041.94
2023-04-15T15:01:31.583Z,96043.00
2023-04-15T15:03:58.169Z,96053.75
2023-04-15T15:06:24.769Z,96047.94
2023-04-15T15:08:51.310Z,96054.50
2023-04-15T15:11:17.844Z,96057.19
2023-04-15T15:13:44.416Z,96058.00
2023-04-15T15:16:13.107Z,96062.56
2023-04-15T15:18:40.924Z,96069.06
2023-04-15T15:21:07.463Z,96065.69
2023-04-15T15:23:33.994Z,96070.56
2023-04-15T15:26:00.563Z,96081.50
2023-04-15T15:28:27.136Z,96087.28
2023-04-15T15:30:53.706Z,96089.81
2023-04-15T15:33:20.248Z,96087.56
2023-04-15T15:35:46.803Z,96097.00
2023-04-15T15:38:13.320Z,96097.84
2023-04-15T15:40:39.845Z,96105.06
2023-04-15T15:43:06.428Z,96113.13
2023-04-15T15:45:32.967Z,96114.63
2023-04-15T15:47:59.561Z,96110.06
2023-04-15T15:50:26.188Z,96114.28
2023-04-15T15:52:52.755Z,96122.69
2023-04-15T15:55:19.302Z,96113.81
2023-04-15T15:57:45.842Z,96117.94
2023-04-15T16:00:12.952Z,96116.13
2023-04-15T16:03:05.092Z,96120.75
2023-04-15T16:05:26.217Z,96122.22
2023-04-15T16:07:52.781Z,96124.91
2023-04-15T16:10:19.343Z,96130.56
2023-04-15T16:12:46.005Z,96138.69
2023-04-15T16:15:12.549Z,96134.47
2023-04-15T16:17:39.116Z,96142.38
2023-04-15T16:20:05.857Z,96140.50
2023-04-15T16:22:32.457Z,96147.34
2023-04-15T16:24:59.035Z,96140.91
2023-04-15T16:27:25.572Z,96146.56
2023-04-15T16:29:52.145Z,96145.47
2023-04-15T16:32:18.747Z,96150.69
2023-04-15T16:34:45.346Z,96158.31
2023-04-15T16:37:11.889Z,96161.78
2023-04-15T16:39:38.422Z,96165.53
2023-04-15T16:42:04.968Z,96165.88
2023-04-15T16:44:31.511Z,96166.28
2023-04-15T16:46:58.048Z,96177.66
2023-04-15T16:49:24.600Z,96180.31
2023-04-15T16:51:52.901Z,96189.09
2023-04-15T16:54:20.656Z,96192.09
2023-04-15T16:56:47.209Z,96189.03
2023-04-15T16:59:13.774Z,96197.09
2023-04-15T17:01:40.426Z,96197.84
2023-04-15T17:04:07.185Z,96202.47
2023-04-15T17:06:33.840Z,96209.63
2023-04-15T17:09:00.419Z,96224.50
2023-04-15T17:11:26.960Z,96225.31
2023-04-15T17:13:53.509Z,96230.97
2023-04-15T17:16:20.172Z,96223.00
2023-04-15T17:18:46.841Z,96237.78
2023-04-15T17:21:13.387Z,96233.19
2023-04-15T17:23:39.935Z,96234.81
2023-04-15T17:26:06.492Z,96235.50
2023-04-15T17:28:33.063Z,96240.03
2023-04-15T17:30:59.619Z,96250.34
2023-04-15T17:33:59.915Z,96251.84
2023-04-15T17:36:12.715Z,96262.50
2023-04-15T17:38:39.276Z,96260.91
2023-04-15T17:41:05.845Z,96264.28
2023-04-15T17:43:32.408Z,96278.03
2023-04-15T17:45:58.967Z,96284.97
2023-04-15T17:48:25.542Z,96291.19
2023-04-15T17:50:52.206Z,96292.91
2023-04-15T17:53:18.803Z,96292.13
2023-04-15T17:55:45.362Z,96292.56
2023-04-15T17:58:11.933Z,96297.09
2023-04-15T18:00:38.485Z,96304.59
2023-04-15T18:03:05.178Z,96312.16
2023-04-15T18:05:31.827Z,96310.78
2023-04-15T18:07:58.421Z,96317.91
2023-04-15T18:10:24.994Z,96328.56
2023-04-15T18:12:51.544Z,96329.34
2023-04-15T18:15:18.088Z,96322.47
2023-04-15T18:17:44.705Z,96328.09
2023-04-15T18:20:11.310Z,96331.97
2023-04-15T18:22:37.884Z,96334.19
2023-04-15T18:25:04.647Z,96333.78
2023-04-15T18:27:31.255Z,96346.03
2023-04-15T18:29:57.818Z,96352.50
2023-04-15T18:32:24.390Z,96343.59
2023-04-15T18:34:50.962Z,96345.56
2023-04-15T18:37:17.522Z,96343.31
2023-04-15T18:39:44.149Z,96335.97
2023-04-15T18:42:10.724Z,96332.19
2023-04-15T18:44:37.280Z,96350.88
2023-04-15T18:47:03.830Z,96364.63
2023-04-15T18:51:56.890Z,96367.53
2023-04-15T18:54:23.464Z,96377.59
2023-04-15T18:56:50.019Z,96388.25
2023-04-15T18:59:29.538Z,96387.06
2023-04-15T19:01:57.219Z,96396.25
2023-04-15T19:04:23.890Z,96393.88
2023-04-15T19:06:50.474Z,96395.00
2023-04-15T19:09:17.054Z,96394.72
2023-04-15T19:11:43.630Z,96400.38
2023-04-15T19:14:10.169Z,96403.91
2023-04-15T19:16:36.758Z,96406.13
2023-04-15T19:19:03.474Z,96414.75
2023-04-15T19:21:30.247Z,96424.97
2023-04-15T19:23:56.811Z,96432.56
2023-04-15T19:26:23.364Z,96433.75
2023-04-15T19:28:49.931Z,96435.63
2023-04-15T19:31:16.506Z,96450.50
2023-04-15T19:33:43.138Z,96449.72
2023-04-15T19:36:09.710Z,96459.91
2023-04-15T19:38:36.319Z,96455.34
2023-04-15T19:41:02.911Z,96459.91
2023-04-15T19:43:29.456Z,96458.00
2023-04-15T19:45:56.042Z,96462.22
2023-04-15T19:48:22.626Z,96466.00
2023-04-15T19:50:49.182Z,96459.63
2023-04-15T19:53:15.729Z,96459.63
2023-04-15T19:55:42.276Z,96462.22
2023-04-15T19:58:08.853Z,96472.09
2023-04-15T20:00:35.425Z,96462.72
2023-04-15T20:03:02.175Z,96467.56
2023-04-15T20:05:28.917Z,96462.16
2023-04-15T20:07:55.476Z,96469.50
2023-04-15T20:10:22.047Z,96468.03
2023-04-15T20:12:52.255Z,96468.88
2023-04-15T20:15:19.868Z,96469.25
2023-04-15T20:17:46.498Z,96474.44
2023-04-15T20:20:13.148Z,96473.66
2023-04-15T20:22:39.713Z,96471.31
2023-04-15T20:25:06.280Z,96481.97
2023-04-15T20:27:32.857Z,96479.03
2023-04-15T20:29:59.428Z,96482.06
2023-04-15T20:32:26.044Z,96477.00
2023-04-15T20:34:52.642Z,96478.81
2023-04-15T20:37:19.197Z,96477.38
2023-04-15T20:39:45.747Z,96484.66
2023-04-15T20:42:12.306Z,96486.53
2023-04-15T20:44:38.917Z,96488.03
2023-04-15T20:47:05.567Z,96493.84
2023-04-15T20:49:32.154Z,96493.84
2023-04-15T20:51:58.689Z,96504.06
2023-04-15T20:54:25.253Z,96506.31
2023-04-15T20:56:51.801Z,96508.22
2023-04-15T20:59:18.353Z,96507.16
2023-04-15T21:01:44.926Z,96512.41
2023-04-15T21:04:11.505Z,96513.34
2023-04-15T21:06:38.037Z,96520.06
2023-04-15T21:09:04.830Z,96523.06
2023-04-15T21:11:53.408Z,96528.38
2023-04-15T21:14:18.063Z,96527.28
2023-04-15T21:16:44.697Z,96527.78
2023-04-15T21:19:11.246Z,96529.16
2023-04-15T21:21:37.825Z,96533.03
2023-04-15T21:24:04.382Z,96539.31
2023-04-15T21:26:30.946Z,96536.38
2023-04-15T21:28:57.506Z,96535.69
2023-04-15T21:31:24.127Z,96541.88
2023-04-15T21:33:50.742Z,96537.66
2023-04-15T21:36:17.290Z,96535.59
2023-04-15T21:38:43.829Z,96541.63
2023-04-15T21:41:10.389Z,96542.06
2023-04-15T21:43:36.938Z,96545.25
2023-04-15T21:46:22.868Z,96548.25
2023-04-15T21:48:50.042Z,96547.47
2023-04-15T21:51:16.608Z,96559.94
2023-04-15T21:53:43.144Z,96556.56
2023-04-15T21:56:09.691Z,96557.28
2023-04-15T21:58:36.258Z,96549.00
2023-04-15T22:01:02.845Z,96557.63
2023-04-15T22:03:29.593Z,96558.72
2023-04-15T22:05:56.324Z,96565.19
2023-04-15T22:08:22.893Z,96564.91
2023-04-15T22:10:49.488Z,96561.00
2023-04-15T22:13:16.058Z,96557.28
2023-04-15T22:15:42.620Z,96561.72
2023-04-15T22:18:09.187Z,96564.56
2023-04-15T22:20:35.743Z,96559.06
2023-04-15T22:23:02.320Z,96554.25
2023-04-15T22:25:28.883Z,96561.06
2023-04-15T22:27:55.443Z,96562.09
2023-04-15T22:30:22.017Z,96564.00
2023-04-15T22:32:48.595Z,96549.19
2023-04-15T22:35:15.146Z,96559.50
2023-04-15T22:37:41.697Z,96559.06
2023-04-15T22:40:08.261Z,96562.59
2023-04-15T22:42:34.829Z,96564.84
2023-04-15T22:45:01.376Z,96564.41
2023-04-15T22:47:27.993Z,96573.53
2023-04-15T22:49:54.594Z,96569.38
2023-04-15T22:52:30.134Z,96573.25
2023-04-15T22:54:57.361Z,96576.59
2023-04-15T22:57:23.964Z,96573.88
2023-04-15T22:59:50.562Z,96577.91
2023-04-15T23:02:17.299Z,96580.31
2023-04-15T23:04:44.032Z,96583.31
2023-04-15T23:07:10.649Z,96590.78
2023-04-15T23:09:37.207Z,96593.19
2023-04-15T23:12:03.782Z,96581.34
2023-04-15T23:14:30.355Z,96598.19
2023-04-15T23:16:57.003Z,96592.84
2023-04-15T23:19:23.561Z,96600.06
2023-04-15T23:21:50.186Z,96601.28
2023-04-15T23:24:16.740Z,96602.47
2023-04-15T23:26:43.685Z,96608.41
2023-04-15T23:29:10.495Z,96605.00
2023-04-15T23:31:37.305Z,96606.38
2023-04-15T23:34:03.894Z,96603.78
2023-04-15T23:36:30.459Z,96607.28
2023-04-15T23:38:57.007Z,96591.75
2023-04-15T23:41:23.551Z,96605.84
2023-04-15T23:43:50.091Z,96607.78
2023-04-15T23:46:16.630Z,96612.97
2023-04-15T23:48:43.198Z,96613.81
2023-04-15T23:51:09.756Z,96612.72
2023-04-15T23:53:36.300Z,96612.34
2023-04-15T23:56:02.850Z,96613.50
2023-04-15T23:58:29.404Z,96610.47
